Time;durP1;ratioP1;P1;durP2;ratioP2;P2;SDS_P1;SDS_P2;PMS_P1;PMS_P2;Temp;Humidity;BMP_temperature;BMP_pressure;BME280_temperature;BME280_humidity;BME280_pressure;Samples;Min_cycle;Max_cycle;Signal;HPM_P1;HPM_P2
2023/03/20 00:00:30;;;;;;;86.25;40.45;;;3.00;97.20;;;;;;5096136;28;20056;-77
2023/03/20 00:02:55;;;;;;;71.03;36.92;;;3.00;96.90;;;;;;5096086;28;20389;-77
2023/03/20 00:05:23;;;;;;;77.25;39.08;;;3.00;96.80;;;;;;5096175;28;20069;-76
2023/03/20 00:07:50;;;;;;;65.68;35.20;;;3.00;97.20;;;;;;5096144;28;20116;-76
2023/03/20 00:10:17;;;;;;;76.30;35.58;;;3.00;97.20;;;;;;5099932;28;20023;-76
2023/03/20 00:12:45;;;;;;;71.53;34.30;;;2.90;97.70;;;;;;5116287;28;20020;-78
2023/03/20 00:15:28;;;;;;;45.85;25.25;;;2.90;98.10;;;;;;5115016;28;20026;-78
2023/03/20 00:17:54;;;;;;;39.65;22.25;;;2.90;98.20;;;;;;5116175;28;20042;-79
2023/03/20 00:20:21;;;;;;;39.28;21.50;;;2.80;97.70;;;;;;5114894;28;20042;-80
2023/03/20 00:22:46;;;;;;;35.72;22.10;;;2.90;97.20;;;;;;5115102;28;20413;-77
2023/03/20 00:25:19;;;;;;;51.42;24.95;;;2.90;96.50;;;;;;5116074;28;20023;-80
2023/03/20 00:27:45;;;;;;;;;;;2.80;97.00;;;;;;5116516;28;20023;-77
2023/03/20 00:30:27;;;;;;;49.85;25.92;;;2.80;97.40;;;;;;5114737;28;20356;-77
2023/03/20 00:32:54;;;;;;;59.20;29.25;;;2.80;97.80;;;;;;5114540;28;20031;-77
2023/03/20 00:35:24;;;;;;;61.65;32.80;;;2.70;99.20;;;;;;5116169;28;20019;-82
2023/03/20 00:37:51;;;;;;;73.03;37.53;;;2.70;99.90;;;;;;5075593;28;20040;-81
2023/03/20 00:40:17;;;;;;;67.30;33.75;;;2.70;99.90;;;;;;5094176;28;20028;-81
2023/03/20 00:42:46;;;;;;;66.07;33.17;;;2.60;99.90;;;;;;5094275;28;20465;-78
2023/03/20 00:45:21;;;;;;;55.60;29.63;;;2.60;99.90;;;;;;5095394;28;20027;-78
2023/03/20 00:47:50;;;;;;;51.97;27.13;;;2.60;99.90;;;;;;5095334;28;20056;-77
2023/03/20 00:50:19;;;;;;;54.72;28.77;;;2.60;99.90;;;;;;5095149;28;20023;-77
2023/03/20 00:52:45;;;;;;;56.67;30.35;;;2.60;99.90;;;;;;5093742;28;20432;-76
2023/03/20 00:55:11;;;;;;;58.40;28.70;;;2.60;99.90;;;;;;5095087;28;20017;-78
2023/03/20 00:57:44;;;;;;;52.65;31.05;;;2.60;99.90;;;;;;5093580;28;20024;-79
2023/03/20 01:00:29;;;;;;;65.85;34.47;;;2.60;99.90;;;;;;5093980;28;20031;-78
2023/03/20 01:02:57;;;;;;;63.75;34.67;;;2.60;99.90;;;;;;5094912;28;20020;-76
2023/03/20 01:05:25;;;;;;;65.78;32.88;;;2.60;99.90;;;;;;5093657;28;20093;-78
2023/03/20 01:07:51;;;;;;;73.00;34.80;;;2.60;99.90;;;;;;5094557;28;20358;-78
2023/03/20 01:10:17;;;;;;;62.25;35.63;;;2.60;99.90;;;;;;5093574;28;20027;-77
2023/03/20 01:12:44;;;;;;;68.32;34.53;;;2.60;99.90;;;;;;5094702;28;20024;-78
2023/03/20 01:15:19;;;;;;;67.53;35.05;;;2.60;99.90;;;;;;5093739;28;20074;-77
2023/03/20 01:17:45;;;;;;;62.92;32.70;;;2.60;99.90;;;;;;5094547;28;20540;-78
2023/03/20 01:20:17;;;;;;;59.90;30.77;;;2.60;99.90;;;;;;5094838;28;20035;-78
2023/03/20 01:22:43;;;;;;;56.75;30.67;;;2.60;99.90;;;;;;5093126;28;20020;-77
2023/03/20 01:25:09;;;;;;;50.80;27.98;;;2.60;99.90;;;;;;5093171;28;20374;-78
2023/03/20 01:27:35;;;;;;;53.95;29.17;;;2.60;99.90;;;;;;5093112;28;20028;-80
2023/03/20 01:30:00;;;;;;;61.88;31.08;;;2.60;99.90;;;;;;5093172;28;20481;-77
2023/03/20 01:32:26;;;;;;;58.70;31.08;;;2.60;99.90;;;;;;5094234;28;20028;-80
2023/03/20 01:34:52;;;;;;;65.30;33.53;;;2.60;99.90;;;;;;5093053;28;20066;-78
2023/03/20 01:37:26;;;;;;;61.90;34.75;;;2.60;99.90;;;;;;5092758;28;20032;-77
2023/03/20 01:39:52;;;;;;;57.92;31.10;;;2.60;99.90;;;;;;5093916;28;20055;-78
2023/03/20 01:42:18;;;;;;;59.25;29.50;;;2.60;99.90;;;;;;5092786;28;20035;-80
2023/03/20 01:44:44;;;;;;;57.63;29.85;;;2.60;99.90;;;;;;5093000;28;20016;-77
2023/03/20 01:47:19;;;;;;;62.03;33.45;;;2.60;99.90;;;;;;5093401;28;20070;-80
2023/03/20 01:50:21;;;;;;;67.07;31.83;;;2.60;99.90;;;;;;5092863;28;20028;-78
2023/03/20 01:52:51;;;;;;;66.72;32.70;;;2.60;99.90;;;;;;5092696;28;20039;-80
2023/03/20 01:55:18;;;;;;;59.20;30.85;;;2.60;99.90;;;;;;5092570;28;20477;-80
2023/03/20 01:57:44;;;;;;;56.67;29.35;;;2.60;99.90;;;;;;5092504;28;20036;-80
2023/03/20 02:00:13;;;;;;;53.90;28.92;;;2.60;99.90;;;;;;5094059;28;20372;-77
2023/03/20 02:02:39;;;;;;;60.38;32.53;;;2.60;99.90;;;;;;5100168;28;20072;-77
2023/03/20 02:05:09;;;;;;;60.88;33.47;;;2.60;99.90;;;;;;5113252;28;20023;-76
2023/03/20 02:07:36;;;;;;;64.75;31.90;;;2.60;99.90;;;;;;5114110;28;20020;-79
2023/03/20 02:10:12;;;;;;;65.28;31.73;;;2.50;99.90;;;;;;5113164;28;20110;-80
2023/03/20 02:12:38;;;;;;;64.03;32.75;;;2.50;99.90;;;;;;5113988;28;20027;-80
2023/03/20 02:15:05;;;;;;;62.03;32.03;;;2.50;99.90;;;;;;5113135;28;20050;-77
2023/03/20 02:17:31;;;;;;;60.33;33.83;;;2.50;99.90;;;;;;5112860;28;20088;-77
2023/03/20 02:20:09;;;;;;;65.28;36.45;;;2.50;99.90;;;;;;5112792;28;20380;-77
2023/03/20 02:22:51;;;;;;;68.47;33.03;;;2.50;99.90;;;;;;5111069;28;20026;-78
2023/03/20 02:25:50;;;;;;;66.43;30.98;;;2.50;99.90;;;;;;5092245;28;20025;-80
2023/03/20 02:28:18;;;;;;;50.35;26.10;;;2.60;99.90;;;;;;5092187;28;20508;-77
2023/03/20 02:31:05;;;;;;;55.72;27.10;;;2.50;99.90;;;;;;5092244;28;20028;-80
2023/03/20 02:33:43;;;;;;;52.05;28.17;;;2.60;99.90;;;;;;5092304;28;20028;-77
2023/03/20 02:36:36;;;;;;;56.08;27.40;;;2.60;99.90;;;;;;5092162;28;20036;-80
2023/03/20 02:39:14;;;;;;;59.38;30.95;;;2.60;99.90;;;;;;5093426;28;20039;-77
2023/03/20 02:42:12;;;;;;;58.50;30.20;;;2.60;99.90;;;;;;5092312;28;20491;-80
2023/03/20 02:45:03;;;;;;;53.17;29.42;;;2.60;99.90;;;;;;5093611;28;20028;-81
2023/03/20 02:48:07;;;;;;;59.20;28.33;;;2.60;99.90;;;;;;5091959;28;20124;-82
2023/03/20 02:50:50;;;;;;;55.90;28.17;;;2.60;99.90;;;;;;5093156;28;20473;-78
2023/03/20 02:53:43;;;;;;;54.58;31.05;;;2.60;99.90;;;;;;5093361;28;20032;-82
2023/03/20 02:56:26;;;;;;;60.80;32.83;;;2.50;99.90;;;;;;5093296;28;20024;-78
2023/03/20 02:58:56;;;;;;;;;;;2.50;99.90;;;;;;5093960;28;20393;-81
2023/03/20 03:01:32;;;;;;;59.88;30.45;;;2.50;99.90;;;;;;5097532;28;19908;-78
2023/03/20 03:04:10;;;;;;;60.47;32.38;;;2.50;99.90;;;;;;5095773;28;20484;-79
2023/03/20 03:06:38;;;;;;;55.25;30.92;;;2.40;99.90;;;;;;5097186;28;20384;-83
2023/03/20 03:09:15;;;;;;;62.85;32.47;;;2.50;99.90;;;;;;5095992;28;20079;-79
2023/03/20 03:11:47;;;;;;;62.63;33.70;;;2.40;99.90;;;;;;5097715;28;20024;-77
2023/03/20 03:14:42;;;;;;;70.25;34.42;;;2.40;99.90;;;;;;5097186;28;20366;-79
2023/03/20 03:17:09;;;;;;;64.50;34.03;;;2.40;99.90;;;;;;5095633;28;20499;-79
2023/03/20 03:19:38;;;;;;;66.07;32.42;;;2.50;99.90;;;;;;5095520;28;20027;-80
2023/03/20 03:22:04;;;;;;;58.28;32.55;;;2.50;99.90;;;;;;5096150;28;20069;-80
2023/03/20 03:24:33;;;;;;;61.33;31.67;;;2.50;99.90;;;;;;5096887;28;20481;-79
2023/03/20 03:27:03;;;;;;;60.05;30.40;;;2.50;99.90;;;;;;5096652;28;20038;-79
2023/03/20 03:29:38;;;;;;;63.95;33.13;;;2.60;99.90;;;;;;5096863;28;20388;-76
2023/03/20 03:32:06;;;;;;;64.50;32.67;;;2.60;99.90;;;;;;5096867;28;20024;-80
2023/03/20 03:34:34;;;;;;;60.90;32.63;;;2.60;99.90;;;;;;5095379;28;20035;-77
2023/03/20 03:37:17;;;;;;;62.45;32.35;;;2.60;99.90;;;;;;5095213;28;20031;-78
2023/03/20 03:40:11;;;;;;;66.43;32.53;;;2.70;99.90;;;;;;5095362;28;20024;-76
2023/03/20 03:42:44;;;;;;;57.28;30.35;;;2.70;99.90;;;;;;5089091;28;20036;-77
2023/03/20 03:45:16;;;;;;;60.25;30.98;;;2.70;99.90;;;;;;5095315;28;20132;-78
2023/03/20 03:48:00;;;;;;;62.03;33.70;;;2.70;99.90;;;;;;5103075;28;20048;-78
2023/03/20 03:50:31;;;;;;;60.53;33.80;;;2.80;99.90;;;;;;5116873;28;20089;-78
2023/03/20 03:53:05;;;;;;;63.15;32.95;;;2.80;99.90;;;;;;5116923;28;20015;-82
2023/03/20 03:55:36;;;;;;;75.50;37.72;;;2.80;99.90;;;;;;5115564;28;20028;-82
2023/03/20 03:58:27;;;;;;;68.73;34.37;;;2.80;99.90;;;;;;5115779;28;20408;-82
2023/03/20 04:00:55;;;;;;;62.17;33.67;;;2.80;99.90;;;;;;5110704;28;20270;-78
2023/03/20 04:03:24;;;;;;;67.13;33.83;;;2.80;99.90;;;;;;5115423;28;20051;-79
2023/03/20 04:05:52;;;;;;;64.35;33.28;;;2.80;99.90;;;;;;5116312;28;20023;-82
2023/03/20 04:08:17;;;;;;;61.53;33.53;;;2.80;99.90;;;;;;5103015;28;20354;-82
2023/03/20 04:10:43;;;;;;;59.30;31.90;;;2.90;99.90;;;;;;5095565;28;20073;-85
2023/03/20 04:13:10;;;;;;;64.97;32.10;;;2.90;99.90;;;;;;5095477;28;20043;-85
2023/03/20 04:15:37;;;;;;;66.72;33.20;;;2.90;99.90;;;;;;5096033;28;20020;-85
2023/03/20 04:18:03;;;;;;;59.55;31.23;;;2.90;99.90;;;;;;5095428;28;20032;-84
2023/03/20 04:20:28;;;;;;;63.97;32.22;;;3.00;99.90;;;;;;5095531;28;20055;-84
2023/03/20 04:22:54;;;;;;;74.00;34.42;;;2.90;99.90;;;;;;5094102;28;20074;-83
2023/03/20 04:25:23;;;;;;;66.85;34.55;;;2.90;99.90;;;;;;5095537;28;20032;-85
2023/03/20 04:27:49;;;;;;;67.78;34.65;;;3.00;99.90;;;;;;5095513;28;20377;-80
2023/03/20 04:30:15;;;;;;;76.18;37.63;;;3.00;99.90;;;;;;5093996;28;20027;-85
2023/03/20 04:32:41;;;;;;;74.75;39.72;;;3.00;99.90;;;;;;5093943;28;20016;-86
2023/03/20 04:35:07;;;;;;;74.78;37.60;;;3.10;99.90;;;;;;5095142;28;20088;-86
2023/03/20 04:37:33;;;;;;;67.90;34.72;;;3.00;99.90;;;;;;5112818;28;20028;-79
2023/03/20 04:39:58;;;;;;;70.75;35.90;;;3.10;99.90;;;;;;5115749;28;20080;-81
2023/03/20 04:42:24;;;;;;;73.95;34.03;;;3.10;99.90;;;;;;5114384;28;20024;-79
2023/03/20 04:44:50;;;;;;;62.92;34.53;;;3.10;99.90;;;;;;5115939;28;20102;-81
2023/03/20 04:47:15;;;;;;;66.70;34.78;;;3.10;99.90;;;;;;5114073;28;20481;-79
2023/03/20 04:49:41;;;;;;;68.68;35.78;;;3.10;99.90;;;;;;5115812;28;20051;-81
2023/03/20 04:52:07;;;;;;;70.03;36.10;;;3.20;99.90;;;;;;5114129;28;20423;-81
2023/03/20 04:54:32;;;;;;;69.95;33.92;;;3.10;99.90;;;;;;5112434;28;20038;-81
2023/03/20 04:56:58;;;;;;;72.30;36.10;;;3.20;99.90;;;;;;5111037;28;20032;-81
2023/03/20 04:59:24;;;;;;;66.22;34.45;;;3.20;99.90;;;;;;5101834;28;20442;-81
2023/03/20 05:01:49;;;;;;;77.78;36.90;;;3.20;99.90;;;;;;5103298;28;20062;-82
2023/03/20 05:04:15;;;;;;;69.97;33.17;;;3.30;99.90;;;;;;5103915;28;20495;-81
2023/03/20 05:06:42;;;;;;;68.22;35.17;;;3.30;99.90;;;;;;5115150;28;20108;-78
2023/03/20 05:09:09;;;;;;;63.20;32.78;;;3.30;99.90;;;;;;5115089;28;20055;-77
2023/03/20 05:11:35;;;;;;;67.90;33.30;;;3.30;99.90;;;;;;5114082;28;20114;-81
2023/03/20 05:14:00;;;;;;;59.50;30.45;;;3.30;99.90;;;;;;5113648;28;20476;-78
2023/03/20 05:16:26;;;;;;;66.78;33.63;;;3.30;99.90;;;;;;5115031;28;20027;-80
2023/03/20 05:18:51;;;;;;;69.53;35.42;;;3.30;99.90;;;;;;5113573;28;20032;-78
2023/03/20 05:21:17;;;;;;;74.93;36.30;;;3.30;99.90;;;;;;5112888;28;20016;-78
2023/03/20 05:23:43;;;;;;;69.38;34.83;;;3.40;99.90;;;;;;5113860;28;20415;-78
2023/03/20 05:26:08;;;;;;;70.13;33.08;;;3.30;99.90;;;;;;5113131;27;20469;-76
2023/03/20 05:28:34;;;;;;;65.90;34.75;;;3.40;99.90;;;;;;5114952;28;20089;-78
2023/03/20 05:30:59;;;;;;;70.63;34.42;;;3.40;99.90;;;;;;5115153;28;20016;-78
2023/03/20 05:33:25;;;;;;;91.97;46.30;;;3.50;99.90;;;;;;5114683;28;20093;-76
2023/03/20 05:35:50;;;;;;;76.38;43.22;;;3.50;99.90;;;;;;5114739;28;20024;-79
2023/03/20 05:38:16;;;;;;;65.57;35.13;;;3.50;99.90;;;;;;5113182;28;20032;-79
2023/03/20 05:40:42;;;;;;;67.57;34.33;;;3.60;99.90;;;;;;5113295;28;20020;-80
2023/03/20 05:43:07;;;;;;;59.85;32.08;;;3.60;99.90;;;;;;5109955;28;20111;-79
2023/03/20 05:45:33;;;;;;;59.10;31.77;;;3.70;99.90;;;;;;5102371;28;20024;-79
2023/03/20 05:47:58;;;;;;;58.85;32.05;;;3.70;99.90;;;;;;5106479;28;20548;-79
2023/03/20 05:50:24;;;;;;;60.00;31.33;;;3.80;99.90;;;;;;5113153;28;20064;-76
2023/03/20 05:52:50;;;;;;;64.90;33.60;;;3.90;99.90;;;;;;5105294;28;20161;-79
2023/03/20 05:55:16;;;;;;;64.30;35.28;;;3.90;99.90;;;;;;5103098;28;20028;-76
2023/03/20 05:57:41;;;;;;;64.80;34.55;;;4.00;99.90;;;;;;5109655;28;20055;-77
2023/03/20 06:00:11;;;;;;;66.72;35.08;;;4.10;99.90;;;;;;5112779;28;20032;-76
2023/03/20 06:02:37;;;;;;;63.58;33.33;;;4.20;99.90;;;;;;5113058;28;20057;-79
2023/03/20 06:05:03;;;;;;;65.72;35.55;;;4.20;99.90;;;;;;5113941;28;20055;-81
2023/03/20 06:07:29;;;;;;;66.78;33.90;;;4.30;99.90;;;;;;5113179;28;20476;-80
2023/03/20 06:09:55;;;;;;;70.35;34.33;;;4.40;99.90;;;;;;5114078;28;20076;-77
2023/03/20 06:12:21;;;;;;;60.60;33.85;;;4.40;99.90;;;;;;5105671;27;20016;-76
2023/03/20 06:14:46;;;;;;;59.97;32.30;;;4.50;99.90;;;;;;5091443;28;20020;-76
2023/03/20 06:17:12;;;;;;;59.33;32.97;;;4.60;99.90;;;;;;5091990;28;20032;-76
2023/03/20 06:19:38;;;;;;;57.47;32.13;;;4.70;99.90;;;;;;5092317;28;20108;-76
2023/03/20 06:22:04;;;;;;;59.08;31.02;;;4.80;99.90;;;;;;5092962;28;20029;-76
2023/03/20 06:24:29;;;;;;;46.00;26.88;;;4.90;99.90;;;;;;5092657;28;20473;-76
2023/03/20 06:26:55;;;;;;;51.45;28.90;;;5.10;99.90;;;;;;5092833;28;20385;-76
2023/03/20 06:29:21;;;;;;;52.88;29.50;;;5.20;99.90;;;;;;5093233;28;20106;-77
2023/03/20 06:31:47;;;;;;;56.50;30.25;;;5.30;99.90;;;;;;5094410;28;20111;-79
2023/03/20 06:34:13;;;;;;;51.13;29.05;;;5.50;99.90;;;;;;5099255;28;20111;-77
2023/03/20 06:36:39;;;;;;;47.15;25.48;;;5.60;99.90;;;;;;5101244;28;20473;-77
2023/03/20 06:39:05;;;;;;;46.65;26.77;;;5.80;99.90;;;;;;5100893;28;20035;-77
2023/03/20 06:41:30;;;;;;;47.58;26.30;;;6.10;99.90;;;;;;5102937;28;20008;-77
2023/03/20 06:43:56;;;;;;;45.42;25.95;;;6.30;99.90;;;;;;5100233;28;20030;-79
2023/03/20 06:46:22;;;;;;;40.97;24.48;;;6.60;99.30;;;;;;5096311;28;20028;-78
2023/03/20 06:48:47;;;;;;;43.42;25.75;;;6.70;94.40;;;;;;5091132;28;20036;-80
2023/03/20 06:51:13;;;;;;;46.47;26.25;;;6.90;89.30;;;;;;5090893;28;20027;-79
2023/03/20 06:53:40;;;;;;;46.10;25.42;;;7.10;86.10;;;;;;5092089;28;20016;-79
2023/03/20 06:56:07;;;;;;;44.80;25.35;;;7.30;81.80;;;;;;5090972;28;20384;-77
2023/03/20 06:58:32;;;;;;;42.53;26.23;;;7.60;80.90;;;;;;5090805;28;20024;-79
2023/03/20 07:00:58;;;;;;;43.88;23.80;;;7.70;79.50;;;;;;5091059;28;20105;-77
2023/03/20 07:03:23;;;;;;;45.33;24.08;;;7.80;79.50;;;;;;5090922;28;20016;-77
2023/03/20 07:05:49;;;;;;;41.55;24.98;;;8.00;79.10;;;;;;5090974;28;20020;-79
2023/03/20 07:08:15;;;;;;;39.45;24.52;;;8.10;78.70;;;;;;5089589;28;20595;-79
2023/03/20 07:10:41;;;;;;;41.13;24.80;;;8.30;78.10;;;;;;5091560;28;20061;-79
2023/03/20 07:13:06;;;;;;;43.53;23.83;;;8.50;76.60;;;;;;5091506;28;20027;-80
2023/03/20 07:15:32;;;;;;;44.90;24.95;;;8.70;76.70;;;;;;5092717;28;20056;-79
2023/03/20 07:17:58;;;;;;;36.17;23.67;;;8.90;75.60;;;;;;5092630;28;20044;-79
2023/03/20 07:20:23;;;;;;;41.15;24.40;;;9.00;74.70;;;;;;5091439;28;20462;-77
2023/03/20 07:22:49;;;;;;;42.40;25.13;;;9.20;74.40;;;;;;5092490;28;20035;-79
2023/03/20 07:25:15;;;;;;;35.83;22.83;;;9.40;74.10;;;;;;5091327;28;20489;-78
2023/03/20 07:27:41;;;;;;;50.03;25.52;;;9.50;73.20;;;;;;5092530;28;20424;-77
2023/03/20 07:30:08;;;;;;;36.33;22.52;;;9.70;73.20;;;;;;5091374;28;20469;-77
2023/03/20 07:32:34;;;;;;;38.78;21.95;;;9.80;73.50;;;;;;5092711;28;20035;-79
2023/03/20 07:35:00;;;;;;;41.08;23.63;;;9.80;72.90;;;;;;5091424;28;20017;-77
2023/03/20 07:37:26;;;;;;;37.83;23.70;;;9.80;72.00;;;;;;5095251;28;20393;-77
2023/03/20 07:39:51;;;;;;;41.03;25.38;;;9.80;72.50;;;;;;5091177;28;20020;-78
2023/03/20 07:42:17;;;;;;;40.95;23.33;;;9.80;72.00;;;;;;5091214;28;20494;-79
2023/03/20 07:44:43;;;;;;;39.55;24.23;;;9.70;71.70;;;;;;5092510;28;20091;-76
2023/03/20 07:47:08;;;;;;;40.30;25.27;;;9.70;73.10;;;;;;5094382;28;20048;-76
2023/03/20 07:49:34;;;;;;;43.58;24.65;;;9.70;72.30;;;;;;5096209;28;20436;-78
2023/03/20 07:52:00;;;;;;;43.80;25.33;;;9.70;72.00;;;;;;5094972;28;20077;-76
2023/03/20 07:54:26;;;;;;;45.00;25.80;;;9.80;72.00;;;;;;5095037;28;20059;-78
2023/03/20 07:56:52;;;;;;;45.00;26.00;;;9.90;72.70;;;;;;5096017;28;20055;-78
2023/03/20 07:59:18;;;;;;;45.00;25.70;;;10.00;73.20;;;;;;5095976;28;20069;-78
2023/03/20 08:01:44;;;;;;;42.88;26.20;;;10.00;73.00;;;;;;5096117;28;20028;-76
2023/03/20 08:04:10;;;;;;;43.92;25.38;;;10.10;73.40;;;;;;5096442;28;20055;-77
2023/03/20 08:06:38;;;;;;;38.97;24.33;;;10.20;72.10;;;;;;5113566;28;20069;-78
2023/03/20 08:09:05;;;;;;;39.22;24.30;;;10.20;72.00;;;;;;5115220;28;20498;-76
2023/03/20 08:11:31;;;;;;;39.92;24.40;;;10.20;72.00;;;;;;5116514;28;20083;-78
2023/03/20 08:13:57;;;;;;;41.85;25.83;;;10.30;72.50;;;;;;5116393;28;20020;-78
2023/03/20 08:16:22;;;;;;;37.75;24.23;;;10.40;71.70;;;;;;5116431;28;20030;-76
2023/03/20 08:18:49;;;;;;;36.72;24.98;;;10.40;71.30;;;;;;5116128;28;20035;-78
2023/03/20 08:21:15;;;;;;;42.13;25.00;;;10.50;71.30;;;;;;5114699;28;20374;-77
2023/03/20 08:23:40;;;;;;;41.97;25.55;;;10.50;70.80;;;;;;5115993;28;20076;-78
2023/03/20 08:26:07;;;;;;;43.13;25.52;;;10.50;71.20;;;;;;5106320;28;20027;-77
2023/03/20 08:28:33;;;;;;;39.85;24.98;;;10.60;71.90;;;;;;5094376;28;20028;-79
2023/03/20 08:30:58;;;;;;;46.22;25.90;;;10.70;71.90;;;;;;5094495;28;20115;-78
2023/03/20 08:33:24;;;;;;;42.28;25.70;;;10.70;71.70;;;;;;5094427;28;20024;-77
2023/03/20 08:35:57;;;;;;;39.67;25.02;;;10.80;71.50;;;;;;5094353;28;20027;-77
2023/03/20 08:38:22;;;;;;;44.33;25.73;;;10.80;72.30;;;;;;5094866;28;20425;-77
2023/03/20 08:40:48;;;;;;;38.78;23.60;;;10.90;72.70;;;;;;5094762;28;20062;-77
2023/03/20 08:43:14;;;;;;;32.28;21.65;;;11.00;72.90;;;;;;5095333;28;20400;-77
2023/03/20 08:45:40;;;;;;;34.17;22.30;;;11.10;74.50;;;;;;5097100;28;20453;-78
2023/03/20 08:48:05;;;;;;;30.15;21.15;;;11.30;74.80;;;;;;5113984;28;20043;-78
2023/03/20 08:50:31;;;;;;;126.63;55.38;;;11.40;74.80;;;;;;5115462;28;20030;-77
2023/03/20 08:52:56;;;;;;;124.35;53.30;;;11.50;73.40;;;;;;5114120;28;20019;-78
2023/03/20 08:55:22;;;;;;;121.30;49.45;;;11.50;73.20;;;;;;5100025;28;20499;-79
2023/03/20 08:57:47;;;;;;;60.33;27.85;;;11.50;72.50;;;;;;5094790;28;20092;-78
2023/03/20 09:00:14;;;;;;;99.15;41.72;;;11.60;72.80;;;;;;5095046;28;20462;-79
2023/03/20 09:02:41;;;;;;;149.88;59.67;;;11.70;72.20;;;;;;5094708;28;20491;-78
2023/03/20 09:05:07;;;;;;;91.97;47.67;;;11.80;72.40;;;;;;5093498;28;20048;-78
2023/03/20 09:07:33;;;;;;;102.57;54.50;;;11.70;71.70;;;;;;5093435;28;20024;-77
2023/03/20 09:09:59;;;;;;;60.67;32.92;;;11.60;72.60;;;;;;5092780;28;20031;-77
2023/03/20 09:12:25;;;;;;;58.70;33.38;;;11.60;72.50;;;;;;5093819;28;20393;-77
2023/03/20 09:14:50;;;;;;;60.90;35.75;;;11.70;72.90;;;;;;5092416;28;20021;-79
2023/03/20 09:17:16;;;;;;;48.08;32.00;;;12.00;73.00;;;;;;5092641;28;20121;-77
2023/03/20 09:19:43;;;;;;;37.40;24.77;;;12.00;71.30;;;;;;5093586;28;20024;-78
2023/03/20 09:22:13;;;;;;;45.97;28.27;;;12.10;71.10;;;;;;5094045;28;20103;-77
2023/03/20 09:24:38;;;;;;;43.00;27.30;;;12.20;71.60;;;;;;5094447;28;20047;-78
2023/03/20 09:27:04;;;;;;;46.30;26.23;;;12.30;71.70;;;;;;5094517;28;20055;-79
2023/03/20 09:29:30;;;;;;;37.78;24.85;;;12.30;71.20;;;;;;5092942;28;20354;-77
2023/03/20 09:31:55;;;;;;;36.85;23.98;;;12.40;71.20;;;;;;5093053;28;20024;-78
2023/03/20 09:34:21;;;;;;;38.03;25.00;;;12.30;71.20;;;;;;5096304;28;20049;-77
2023/03/20 09:36:47;;;;;;;37.33;23.88;;;12.30;71.20;;;;;;5111965;28;20024;-79
2023/03/20 09:39:13;;;;;;;36.35;24.70;;;12.40;71.20;;;;;;5114388;28;20073;-77
2023/03/20 09:41:39;;;;;;;39.38;24.38;;;12.30;71.70;;;;;;5114649;28;20032;-79
2023/03/20 09:44:44;;;;;;;36.63;26.25;;;12.10;72.20;;;;;;5113263;28;20024;-78
2023/03/20 09:47:36;;;;;;;41.20;25.90;;;12.10;73.90;;;;;;5109008;28;20067;-79
2023/03/20 09:50:21;;;;;;;39.08;25.73;;;11.90;75.10;;;;;;5091876;28;20038;-79
2023/03/20 09:53:24;;;;;;;43.47;25.17;;;11.60;76.60;;;;;;5091863;28;20108;-78
2023/03/20 09:55:51;;;;;;;41.05;25.88;;;11.50;81.80;;;;;;5092560;28;20476;-78
2023/03/20 09:58:32;;;;;;;35.35;23.02;;;11.40;81.30;;;;;;5093459;28;20023;-79
2023/03/20 10:01:01;;;;;;;35.60;22.83;;;11.30;81.40;;;;;;5093640;28;20024;-78
2023/03/20 10:03:37;;;;;;;35.78;23.48;;;11.10;82.20;;;;;;5091856;28;20037;-76
2023/03/20 10:06:07;;;;;;;40.72;25.05;;;11.10;83.70;;;;;;5093877;28;20016;-77
2023/03/20 10:08:35;;;;;;;36.30;24.38;;;11.00;85.20;;;;;;5091635;28;20075;-77
2023/03/20 10:11:31;;;;;;;37.95;24.95;;;11.00;86.10;;;;;;5093862;28;20052;-76
2023/03/20 10:14:02;;;;;;;36.00;24.48;;;10.90;88.40;;;;;;5093861;28;20073;-76
2023/03/20 10:16:52;;;;;;;36.75;25.73;;;10.80;92.30;;;;;;5092590;28;20370;-77
2023/03/20 10:19:30;;;;;;;42.08;25.98;;;10.80;96.90;;;;;;5093856;28;20139;-76
2023/03/20 10:22:23;;;;;;;40.85;24.80;;;10.80;99.90;;;;;;5092512;28;20028;-77
2023/03/20 10:24:56;;;;;;;33.22;23.05;;;10.70;99.90;;;;;;5090516;28;20043;-76
2023/03/20 10:27:48;;;;;;;35.97;22.48;;;10.50;99.90;;;;;;5091613;28;20044;-77
2023/03/20 10:30:32;;;;;;;36.97;24.98;;;10.30;99.90;;;;;;5091771;28;20663;-76
2023/03/20 10:33:15;;;;;;;39.00;26.42;;;10.20;99.90;;;;;;5091644;28;20495;-77
2023/03/20 10:35:58;;;;;;;40.53;27.08;;;10.20;99.90;;;;;;5091578;28;20027;-77
2023/03/20 10:39:02;;;;;;;49.47;31.75;;;10.20;99.90;;;;;;5091110;28;20107;-77
2023/03/20 10:41:33;;;;;;;128.25;59.78;;;10.10;99.90;;;;;;5077388;28;20515;-76
2023/03/20 10:44:00;;;;;;;222.90;85.60;;;10.20;99.90;;;;;;5093517;28;20055;-77
2023/03/20 10:46:29;;;;;;;89.18;41.67;;;10.30;99.90;;;;;;5093418;28;20020;-77
2023/03/20 10:49:10;;;;;;;55.38;32.25;;;10.20;99.90;;;;;;5093238;28;20113;-77
2023/03/20 10:51:39;;;;;;;65.25;38.42;;;10.30;99.90;;;;;;5091687;28;20020;-77
2023/03/20 10:54:19;;;;;;;52.58;34.08;;;10.30;99.90;;;;;;5093313;28;20024;-76
2023/03/20 10:56:49;;;;;;;63.03;40.42;;;10.40;99.90;;;;;;5092026;28;20096;-77
2023/03/20 10:59:20;;;;;;;55.45;35.78;;;10.60;99.90;;;;;;5093348;28;20024;-77
2023/03/20 11:01:46;;;;;;;68.15;38.38;;;10.80;99.90;;;;;;5092286;28;20033;-76
2023/03/20 11:04:12;;;;;;;80.15;47.15;;;10.90;99.90;;;;;;5091976;28;20489;-76
2023/03/20 11:07:01;;;;;;;85.07;46.50;;;11.10;99.90;;;;;;5093284;28;20103;-77
2023/03/20 11:09:29;;;;;;;77.68;40.28;;;11.20;99.90;;;;;;5083492;28;20044;-79
2023/03/20 11:12:00;;;;;;;74.47;41.42;;;11.20;99.90;;;;;;5093000;28;20024;-76
2023/03/20 11:14:36;;;;;;;69.20;37.25;;;11.20;99.90;;;;;;5093128;28;20081;-77
2023/03/20 11:17:03;;;;;;;68.68;39.72;;;11.10;99.90;;;;;;5092896;28;20020;-77
2023/03/20 11:19:36;;;;;;;53.22;31.65;;;11.20;99.90;;;;;;5093123;28;20032;-78
2023/03/20 11:22:20;;;;;;;52.05;31.15;;;11.10;99.90;;;;;;5095285;28;20450;-78
2023/03/20 11:24:54;;;;;;;51.03;31.67;;;11.10;99.90;;;;;;5096473;28;20030;-78
2023/03/20 11:27:31;;;;;;;52.25;31.35;;;11.10;99.90;;;;;;5096433;28;20109;-78
2023/03/20 11:30:01;;;;;;;50.38;31.25;;;11.10;99.90;;;;;;5095116;28;20370;-78
2023/03/20 11:32:45;;;;;;;53.13;32.58;;;11.10;99.90;;;;;;5095087;28;20032;-78
2023/03/20 11:35:32;;;;;;;53.15;34.15;;;11.10;99.90;;;;;;5095095;28;20028;-78
2023/03/20 11:38:28;;;;;;;55.08;32.45;;;11.20;99.90;;;;;;5090333;28;20059;-78
2023/03/20 11:40:54;;;;;;;60.60;33.53;;;11.20;99.90;;;;;;5082173;28;20036;-77
2023/03/20 11:43:27;;;;;;;48.83;31.75;;;11.10;99.90;;;;;;5096199;28;20025;-76
2023/03/20 11:45:58;;;;;;;53.53;31.73;;;11.20;99.90;;;;;;5096252;28;20496;-78
2023/03/20 11:49:04;;;;;;;57.20;36.03;;;11.30;99.90;;;;;;5095688;28;20048;-77
2023/03/20 11:51:32;;;;;;;53.40;33.40;;;11.20;99.90;;;;;;5103217;28;20020;-78
2023/03/20 11:54:04;;;;;;;54.10;32.25;;;11.30;99.90;;;;;;5101837;28;20030;-79
2023/03/20 11:56:32;;;;;;;61.67;36.13;;;11.40;99.90;;;;;;5100141;28;20020;-77
2023/03/20 11:59:10;;;;;;;60.38;36.45;;;11.50;99.90;;;;;;5100262;28;20063;-77
2023/03/20 12:01:43;;;;;;;56.15;35.10;;;11.50;99.90;;;;;;5103858;28;20047;-74
2023/03/20 12:04:15;;;;;;;59.63;36.53;;;11.60;99.90;;;;;;5102227;28;20027;-77
2023/03/20 12:06:43;;;;;;;61.40;38.53;;;11.60;99.90;;;;;;5101729;28;20469;-78
2023/03/20 12:09:43;;;;;;;92.55;46.22;;;11.60;99.90;;;;;;5102640;28;20032;-75
2023/03/20 12:12:18;;;;;;;47.97;29.55;;;11.50;99.90;;;;;;5104319;28;20028;-76
2023/03/20 12:14:58;;;;;;;45.00;27.05;;;11.50;99.90;;;;;;5107733;28;20055;-76
2023/03/20 12:17:42;;;;;;;39.65;26.27;;;11.40;99.90;;;;;;5115081;28;20388;-77
2023/03/20 12:20:37;;;;;;;40.80;24.85;;;11.40;99.90;;;;;;5106422;28;20050;-78
2023/03/20 12:23:09;;;;;;;44.65;27.40;;;11.50;99.90;;;;;;5103545;28;20488;-77
2023/03/20 12:26:02;;;;;;;36.72;24.13;;;11.50;99.90;;;;;;5097089;28;20024;-77
2023/03/20 12:28:45;;;;;;;45.03;25.87;;;11.50;99.90;;;;;;5094268;28;20132;-78
2023/03/20 12:31:34;;;;;;;38.08;21.85;;;11.50;99.90;;;;;;5102311;28;20262;-78
2023/03/20 12:34:19;;;;;;;34.20;21.38;;;11.40;99.90;;;;;;5102067;28;20022;-78
2023/03/20 12:36:47;;;;;;;36.78;22.17;;;11.40;99.90;;;;;;5103453;28;20020;-78
2023/03/20 12:39:18;;;;;;;37.90;22.98;;;11.30;99.90;;;;;;5103086;28;20043;-77
2023/03/20 12:42:13;;;;;;;37.70;23.38;;;11.30;99.90;;;;;;5103342;28;20533;-77
2023/03/20 12:45:00;;;;;;;37.05;24.65;;;11.30;99.90;;;;;;5107310;28;20081;-77
2023/03/20 12:47:40;;;;;;;47.85;27.05;;;11.10;99.90;;;;;;5114039;28;20056;-76
2023/03/20 12:50:25;;;;;;;37.15;22.35;;;11.10;99.90;;;;;;5098048;28;20119;-77
2023/03/20 12:53:09;;;;;;;36.80;23.58;;;11.10;99.90;;;;;;5104942;28;20024;-77